createdAt,value
2022-11-14T00:00:42.287Z,13.23
2022-11-14T00:05:48.612Z,14.52
2022-11-14T00:10:54.431Z,13.38
2022-11-14T00:16:02.059Z,27.58
2022-11-14T00:21:07.357Z,25.98
2022-11-14T00:26:12.349Z,21.80
2022-11-14T00:31:20.085Z,22.77
2022-11-14T00:36:25.063Z,20.15
2022-11-14T00:41:32.193Z,15.68
2022-11-14T00:46:40.086Z,15.52
2022-11-14T00:51:45.061Z,14.88
2022-11-14T00:56:50.124Z,17.88
2022-11-14T01:01:58.205Z,16.08
2022-11-14T01:07:03.550Z,12.60
2022-11-14T01:12:10.293Z,13.10
2022-11-14T01:17:17.890Z,13.05
2022-11-14T01:22:22.880Z,13.30
2022-11-14T01:27:28.005Z,16.98
2022-11-14T01:32:35.617Z,20.70
2022-11-14T01:37:40.670Z,27.33
2022-11-14T01:42:45.872Z,21.98
2022-11-14T01:47:53.445Z,34.95
2022-11-14T01:52:58.442Z,24.98
2022-11-14T01:58:03.998Z,16.30
2022-11-14T02:03:11.709Z,13.88
2022-11-14T02:08:19.157Z,12.57
2022-11-14T02:13:24.153Z,10.90
2022-11-14T02:18:31.943Z,12.23
2022-11-14T02:23:39.804Z,11.32
2022-11-14T02:28:44.768Z,11.82
2022-11-14T02:33:49.817Z,12.00
2022-11-14T02:38:57.457Z,11.40
2022-11-14T02:44:02.536Z,12.52
2022-11-14T02:49:10.556Z,11.18
2022-11-14T02:54:18.160Z,11.35
2022-11-14T02:59:23.228Z,10.60
2022-11-14T03:04:28.267Z,12.93
2022-11-14T03:09:35.941Z,11.02
2022-11-14T03:14:40.921Z,10.70
2022-11-14T03:19:45.906Z,10.63
2022-11-14T03:24:53.540Z,10.85
2022-11-14T03:29:58.553Z,10.77
2022-11-14T03:35:03.675Z,11.73
2022-11-14T03:40:12.686Z,11.00
2022-11-14T03:45:17.773Z,10.90
2022-11-14T03:50:22.765Z,10.75
2022-11-14T03:55:30.465Z,10.98
2022-11-14T04:00:35.478Z,11.27
2022-11-14T04:05:40.652Z,11.55
2022-11-14T04:10:50.289Z,11.00
2022-11-14T04:15:59.042Z,11.77
2022-11-14T04:21:04.010Z,12.13
2022-11-14T04:26:11.648Z,10.98
2022-11-14T04:31:16.642Z,10.63
2022-11-14T04:36:21.706Z,10.30
2022-11-14T04:41:29.325Z,10.90
2022-11-14T04:46:34.410Z,11.43
2022-11-14T04:51:39.398Z,10.57
2022-11-14T04:56:47.025Z,11.80
2022-11-14T05:01:52.284Z,10.45
2022-11-14T05:06:57.500Z,11.00
2022-11-14T05:12:05.228Z,10.38
2022-11-14T05:17:10.199Z,11.57
2022-11-14T05:22:15.313Z,10.63
2022-11-14T05:27:22.923Z,11.45
2022-11-14T05:32:27.919Z,11.07
2022-11-14T05:37:33.027Z,11.10
2022-11-14T05:42:40.798Z,11.23
2022-11-14T05:47:45.768Z,11.57
2022-11-14T05:52:50.780Z,10.68
2022-11-14T05:58:01.211Z,11.27
2022-11-14T06:08:10.872Z,11.77
2022-11-14T06:13:18.505Z,11.65
2022-11-14T06:18:23.504Z,10.93
2022-11-14T06:23:28.502Z,11.20
2022-11-14T06:28:36.681Z,11.82
2022-11-14T06:33:41.647Z,11.55
2022-11-14T06:38:47.268Z,13.15
2022-11-14T06:43:55.633Z,12.40
2022-11-14T06:49:00.614Z,11.88
2022-11-14T06:54:05.640Z,13.82
2022-11-14T06:59:13.265Z,10.82
2022-11-14T07:04:18.395Z,10.30
2022-11-14T07:09:23.529Z,11.23
2022-11-14T07:14:31.714Z,10.73
2022-11-14T07:19:36.806Z,10.63
2022-11-14T07:24:41.816Z,10.68
2022-11-14T07:29:49.399Z,10.48
2022-11-14T07:35:00.794Z,9.82
2022-11-14T07:40:07.992Z,10.82
2022-11-14T07:45:15.968Z,10.32
2022-11-14T07:50:21.110Z,9.63
2022-11-14T07:55:26.274Z,9.18
2022-11-14T08:00:34.013Z,8.63
2022-11-14T08:05:39.058Z,8.98
2022-11-14T08:10:44.042Z,8.43
2022-11-14T08:15:51.811Z,9.35
2022-11-14T08:20:57.893Z,9.45
2022-11-14T08:26:03.022Z,16.85
2022-11-14T08:31:11.066Z,10.32
2022-11-14T08:36:16.150Z,11.50
2022-11-14T08:41:21.228Z,9.55
2022-11-14T08:46:28.878Z,10.20
2022-11-14T08:51:36.166Z,10.25
2022-11-14T08:56:41.635Z,10.05
2022-11-14T09:01:52.202Z,10.30
2022-11-14T09:06:58.964Z,10.48
2022-11-14T09:12:04.388Z,10.35
2022-11-14T09:17:12.276Z,10.55
2022-11-14T09:22:17.280Z,12.32
2022-11-14T09:27:22.297Z,11.52
2022-11-14T09:32:30.179Z,12.77
2022-11-14T09:37:35.183Z,11.70
2022-11-14T09:42:55.422Z,11.30
2022-11-14T09:48:08.300Z,10.13
2022-11-14T09:53:16.967Z,10.25
2022-11-14T09:58:23.425Z,10.15
2022-11-14T10:03:37.426Z,10.35
2022-11-14T10:08:52.595Z,10.98
2022-11-14T10:14:11.855Z,11.35
2022-11-14T10:19:26.048Z,11.85
2022-11-14T10:24:46.198Z,12.15
2022-11-14T10:30:00.993Z,10.27
2022-11-14T10:35:15.398Z,10.50
2022-11-14T10:40:22.466Z,9.57
2022-11-14T10:45:30.424Z,9.55
2022-11-14T10:50:44.709Z,10.35
2022-11-14T10:56:07.940Z,10.68
2022-11-14T11:01:38.052Z,10.35
2022-11-14T11:06:45.761Z,11.32
2022-11-14T11:11:59.866Z,9.95
2022-11-14T11:17:22.980Z,8.73
2022-11-14T11:22:46.958Z,10.27
2022-11-14T11:28:07.460Z,9.38
2022-11-14T11:33:20.189Z,9.15
2022-11-14T11:38:28.784Z,10.82
2022-11-14T11:43:40.606Z,8.83
2022-11-14T11:48:45.696Z,8.55
2022-11-14T11:54:00.773Z,8.77
2022-11-14T11:59:17.961Z,8.60
2022-11-14T12:04:23.165Z,8.60
2022-11-14T12:10:08.380Z,8.57
2022-11-14T12:15:05.002Z,8.27
2022-11-14T12:20:21.332Z,8.02
2022-11-14T12:25:46.340Z,7.15
2022-11-14T12:30:54.219Z,6.45
2022-11-14T12:36:01.531Z,6.68
2022-11-14T12:41:09.377Z,6.53
2022-11-14T12:46:15.277Z,6.43
2022-11-14T12:51:51.606Z,6.30
2022-11-14T12:57:04.075Z,6.88
2022-11-14T13:02:38.801Z,6.35
2022-11-14T13:07:49.160Z,7.63
2022-11-14T13:13:21.255Z,6.70
2022-11-14T13:18:40.479Z,6.85
2022-11-14T13:23:59.246Z,7.57
2022-11-14T13:29:07.298Z,6.55
2022-11-14T13:34:39.795Z,6.72
2022-11-14T13:39:50.446Z,6.72
2022-11-14T13:45:09.096Z,6.80
2022-11-14T13:50:15.592Z,7.70
2022-11-14T13:55:25.889Z,10.15
2022-11-14T14:00:49.549Z,8.68
2022-11-14T14:06:15.189Z,6.38
2022-11-14T14:11:32.868Z,7.22
2022-11-14T14:16:47.687Z,7.85
2022-11-14T14:21:55.352Z,8.07
2022-11-14T14:27:06.027Z,8.00
2022-11-14T14:32:17.936Z,7.68
2022-11-14T14:37:24.592Z,6.13
2022-11-14T14:42:34.946Z,6.75
2022-11-14T14:47:43.986Z,6.82
2022-11-14T14:52:48.986Z,6.20
2022-11-14T14:57:53.925Z,6.13
2022-11-14T15:03:02.145Z,5.90
2022-11-14T15:08:07.991Z,6.15
2022-11-14T15:13:14.900Z,6.22
2022-11-14T15:18:26.827Z,7.03
2022-11-14T15:23:31.848Z,6.50
2022-11-14T15:28:37.124Z,7.60
2022-11-14T15:33:44.770Z,8.93
2022-11-14T15:39:01.964Z,22.52
2022-11-14T15:44:07.165Z,52.05
2022-11-14T15:49:23.597Z,45.63
2022-11-14T15:54:30.378Z,12.63
2022-11-14T15:59:35.951Z,9.93
2022-11-14T16:04:47.471Z,12.02
2022-11-14T16:09:52.974Z,10.25
2022-11-14T16:14:57.932Z,12.75
2022-11-14T16:20:06.548Z,13.30
2022-11-14T16:25:16.749Z,13.35
2022-11-14T16:35:30.306Z,11.38
2022-11-14T16:40:35.280Z,13.18
2022-11-14T16:45:43.182Z,13.77
2022-11-14T16:50:55.599Z,13.75
2022-11-14T16:56:02.505Z,15.88
2022-11-14T17:01:12.913Z,15.27
2022-11-14T17:06:22.136Z,20.23
2022-11-14T17:11:27.832Z,26.60
2022-11-14T17:16:32.830Z,22.35
2022-11-14T17:21:40.447Z,23.88
2022-11-14T17:26:45.825Z,25.42
2022-11-14T17:31:50.866Z,33.22
2022-11-14T17:36:58.513Z,30.92
2022-11-14T17:42:03.588Z,28.02
2022-11-14T17:47:08.693Z,21.67
2022-11-14T17:52:16.321Z,17.50
2022-11-14T17:57:21.420Z,15.93
2022-11-14T18:02:26.446Z,14.38
2022-11-14T18:07:35.751Z,15.35
2022-11-14T18:12:40.889Z,17.13
2022-11-14T18:17:45.890Z,17.58
2022-11-14T18:22:53.668Z,16.60
2022-11-14T18:27:58.656Z,13.95
2022-11-14T18:33:03.673Z,28.45
2022-11-14T18:38:11.905Z,31.70
2022-11-14T18:43:18.116Z,24.38
2022-11-14T18:48:23.093Z,13.00
2022-11-14T18:53:33.844Z,19.05
2022-11-14T18:58:40.000Z,32.15
2022-11-14T19:03:45.173Z,34.90
2022-11-14T19:08:52.769Z,33.20
2022-11-14T19:13:57.749Z,27.60
2022-11-14T19:19:02.985Z,20.58
2022-11-14T19:24:11.897Z,28.65
2022-11-14T19:29:16.943Z,21.48
2022-11-14T19:34:22.149Z,18.30
2022-11-14T19:39:29.798Z,17.55
2022-11-14T19:44:34.989Z,19.80
2022-11-14T19:49:40.033Z,17.85
2022-11-14T19:54:49.327Z,20.25
2022-11-14T19:59:54.325Z,16.50
2022-11-14T20:04:59.304Z,15.93
2022-11-14T20:10:08.030Z,20.00
2022-11-14T20:15:13.898Z,29.45
2022-11-14T20:20:19.252Z,26.05
2022-11-14T20:25:26.973Z,16.30
2022-11-14T20:30:32.101Z,15.93
2022-11-14T20:35:39.338Z,14.60
2022-11-14T20:40:46.975Z,13.27
2022-11-14T20:45:59.103Z,14.02
2022-11-14T20:51:07.079Z,16.73
2022-11-14T20:56:15.546Z,14.93
2022-11-14T21:01:21.240Z,13.30
2022-11-14T21:06:26.251Z,28.67
2022-11-14T21:11:33.861Z,15.80
2022-11-14T21:16:40.478Z,16.92
2022-11-14T21:21:45.533Z,18.10
2022-11-14T21:26:53.148Z,15.80
2022-11-14T21:31:58.172Z,14.15
2022-11-14T21:37:03.429Z,17.92
2022-11-14T21:42:15.678Z,15.05
2022-11-14T21:47:23.286Z,14.60
2022-11-14T21:52:28.256Z,13.25
2022-11-14T21:57:35.834Z,14.35
2022-11-14T22:02:53.145Z,14.27
2022-11-14T22:07:58.330Z,14.18
2022-11-14T22:13:06.111Z,14.88
2022-11-14T22:18:11.090Z,14.80
2022-11-14T22:23:16.135Z,13.73
2022-11-14T22:28:23.801Z,13.15
2022-11-14T22:33:29.097Z,13.13
2022-11-14T22:38:34.931Z,12.23
2022-11-14T22:43:42.681Z,11.90
2022-11-14T22:48:49.057Z,11.00
2022-11-14T22:53:55.654Z,11.23
2022-11-14T22:59:04.578Z,17.60
2022-11-14T23:04:09.643Z,14.02
2022-11-14T23:09:14.897Z,12.40
2022-11-14T23:14:22.575Z,20.02
2022-11-14T23:19:27.588Z,15.93
2022-11-14T23:24:32.558Z,14.75
2022-11-14T23:29:40.158Z,23.65
2022-11-14T23:34:45.226Z,23.05
2022-11-14T23:39:50.253Z,13.55
2022-11-14T23:44:57.908Z,13.05
2022-11-14T23:50:02.905Z,11.27
2022-11-14T23:55:08.632Z,10.75
